createdAt,value
2019-02-21T00:01:37.158Z,5.00
2019-02-21T00:04:05.751Z,4.90
2019-02-21T00:06:34.240Z,4.90
2019-02-21T00:09:03.340Z,4.90
2019-02-21T00:11:31.896Z,4.90
2019-02-21T00:14:00.426Z,4.90
2019-02-21T00:16:28.979Z,4.90
2019-02-21T00:18:57.435Z,4.80
2019-02-21T00:21:26.303Z,4.80
2019-02-21T00:23:54.765Z,4.80
2019-02-21T00:26:23.580Z,4.70
2019-02-21T00:28:52.208Z,4.70
2019-02-21T00:31:20.807Z,4.70
2019-02-21T00:33:49.283Z,4.60
2019-02-21T00:36:17.808Z,4.60
2019-02-21T00:38:46.639Z,4.60
2019-02-21T00:41:15.169Z,4.60
2019-02-21T00:43:43.695Z,4.50
2019-02-21T00:46:12.255Z,4.50
2019-02-21T00:48:40.786Z,4.50
2019-02-21T00:51:09.327Z,4.40
2019-02-21T00:53:37.780Z,4.40
2019-02-21T00:56:06.259Z,4.40
2019-02-21T00:58:34.787Z,4.40
2019-02-21T01:01:03.331Z,4.40
2019-02-21T01:03:31.859Z,4.40
2019-02-21T01:06:00.339Z,4.30
2019-02-21T01:08:28.861Z,4.30
2019-02-21T01:10:57.419Z,4.30
2019-02-21T01:13:25.867Z,4.30
2019-02-21T01:15:54.343Z,4.30
2019-02-21T01:18:22.795Z,4.30
2019-02-21T01:20:51.352Z,4.30
2019-02-21T01:23:19.799Z,4.20
2019-02-21T01:25:48.280Z,4.20
2019-02-21T01:28:16.846Z,4.20
2019-02-21T01:30:45.471Z,4.20
2019-02-21T01:33:13.928Z,4.10
2019-02-21T01:35:42.483Z,4.10
2019-02-21T01:38:11.032Z,4.10
2019-02-21T01:40:39.487Z,4.10
2019-02-21T01:43:08.107Z,4.10
2019-02-21T01:45:36.704Z,4.10
2019-02-21T01:48:05.262Z,4.10
2019-02-21T01:50:33.863Z,4.10
2019-02-21T01:53:02.414Z,4.10
2019-02-21T01:55:30.871Z,4.10
2019-02-21T01:57:59.343Z,4.10
2019-02-21T02:00:27.799Z,4.00
2019-02-21T02:02:56.255Z,4.00
2019-02-21T02:05:24.732Z,4.00
2019-02-21T02:07:53.183Z,4.10
2019-02-21T02:10:21.740Z,4.10
2019-02-21T02:12:50.270Z,4.10
2019-02-21T02:15:18.825Z,4.00
2019-02-21T02:17:47.355Z,4.00
2019-02-21T02:20:15.888Z,4.00
2019-02-21T02:22:44.443Z,4.00
2019-02-21T02:25:13.264Z,4.00
2019-02-21T02:27:42.023Z,3.90
2019-02-21T02:30:10.620Z,3.90
2019-02-21T02:32:39.179Z,3.90
2019-02-21T02:35:07.855Z,3.90
2019-02-21T02:37:36.400Z,3.90
2019-02-21T02:40:05.669Z,3.90
2019-02-21T02:42:34.223Z,3.90
2019-02-21T02:45:02.675Z,3.90
2019-02-21T02:47:31.132Z,3.90
2019-02-21T02:49:59.611Z,3.90
2019-02-21T02:52:28.069Z,3.80
2019-02-21T02:54:56.615Z,3.80
2019-02-21T02:57:25.097Z,3.80
2019-02-21T02:59:53.636Z,3.80
2019-02-21T03:02:22.262Z,3.70
2019-02-21T03:04:50.929Z,3.60
2019-02-21T03:07:19.416Z,3.60
2019-02-21T03:09:47.895Z,3.60
2019-02-21T03:12:16.421Z,3.50
2019-02-21T03:14:44.977Z,3.50
2019-02-21T03:17:13.509Z,3.50
2019-02-21T03:19:41.964Z,3.50
2019-02-21T03:22:10.530Z,3.50
2019-02-21T03:24:39.079Z,3.50
2019-02-21T03:27:07.608Z,3.50
2019-02-21T03:29:36.066Z,3.50
2019-02-21T03:32:04.616Z,3.50
2019-02-21T03:34:33.104Z,3.40
2019-02-21T03:37:01.644Z,3.40
2019-02-21T03:39:30.423Z,3.40
2019-02-21T03:41:59.043Z,3.30
2019-02-21T03:44:27.601Z,3.30
2019-02-21T03:46:56.131Z,3.30
2019-02-21T03:49:24.706Z,3.20
2019-02-21T03:51:53.225Z,3.20
2019-02-21T03:54:21.751Z,3.30
2019-02-21T03:56:50.304Z,3.30
2019-02-21T03:59:18.765Z,3.30
2019-02-21T04:01:47.326Z,3.20
2019-02-21T04:04:16.004Z,3.20
2019-02-21T04:06:44.669Z,3.20
2019-02-21T04:09:13.165Z,3.20
2019-02-21T04:11:41.716Z,3.20
2019-02-21T04:14:10.324Z,3.20
2019-02-21T04:16:38.950Z,3.20
2019-02-21T04:19:08.381Z,3.20
2019-02-21T04:21:36.936Z,3.20
2019-02-21T04:24:05.403Z,3.20
2019-02-21T04:26:33.933Z,3.10
2019-02-21T04:29:02.488Z,3.10
2019-02-21T04:31:31.025Z,3.20
2019-02-21T04:33:59.905Z,3.20
2019-02-21T04:36:28.437Z,3.20
2019-02-21T04:38:56.995Z,3.20
2019-02-21T04:41:25.456Z,3.20
2019-02-21T04:43:53.941Z,3.20
2019-02-21T04:46:22.478Z,3.20
2019-02-21T04:48:51.018Z,3.10
2019-02-21T04:51:19.575Z,3.10
2019-02-21T04:53:48.104Z,3.00
2019-02-21T04:56:16.666Z,3.00
2019-02-21T04:58:45.204Z,3.00
2019-02-21T05:01:13.759Z,3.00
2019-02-21T05:03:42.296Z,3.00
2019-02-21T05:06:10.896Z,3.00
2019-02-21T05:08:39.396Z,3.00
2019-02-21T05:11:07.952Z,2.90
2019-02-21T05:13:36.837Z,3.00
2019-02-21T05:16:05.397Z,3.00
2019-02-21T05:18:33.934Z,3.00
2019-02-21T05:21:02.790Z,3.00
2019-02-21T05:23:31.324Z,3.00
2019-02-21T05:25:59.887Z,3.10
2019-02-21T05:28:32.133Z,3.10
2019-02-21T05:31:02.310Z,3.20
2019-02-21T05:33:47.628Z,3.20
2019-02-21T05:36:20.281Z,3.20
2019-02-21T05:38:53.052Z,3.30
2019-02-21T05:41:38.574Z,3.30
2019-02-21T05:44:14.247Z,3.30
2019-02-21T05:46:44.640Z,3.40
2019-02-21T05:49:14.846Z,3.40
2019-02-21T05:51:45.019Z,3.40
2019-02-21T05:54:18.204Z,3.50
2019-02-21T05:56:54.500Z,3.50
2019-02-21T05:59:33.659Z,3.50
2019-02-21T06:02:12.640Z,3.50
2019-02-21T06:04:52.118Z,3.50
2019-02-21T06:07:34.227Z,3.50
2019-02-21T06:10:04.495Z,3.50
2019-02-21T06:12:37.584Z,3.50
2019-02-21T06:15:07.782Z,3.50
2019-02-21T06:17:41.080Z,3.40
2019-02-21T06:20:13.944Z,3.50
2019-02-21T06:22:52.886Z,3.50
2019-02-21T06:25:35.149Z,3.60
2019-02-21T06:28:05.392Z,3.60
2019-02-21T06:30:38.480Z,3.60
2019-02-21T06:33:07.292Z,3.60
2019-02-21T06:35:35.837Z,3.60
2019-02-21T06:38:04.411Z,3.50
2019-02-21T06:40:32.931Z,3.60
2019-02-21T06:43:01.484Z,3.50
2019-02-21T06:45:30.017Z,3.40
2019-02-21T06:47:58.584Z,3.40
2019-02-21T06:50:27.379Z,3.40
2019-02-21T06:52:55.983Z,3.40
2019-02-21T06:55:24.442Z,3.40
2019-02-21T06:57:52.976Z,3.40
2019-02-21T07:00:21.461Z,3.40
2019-02-21T07:02:50.058Z,3.40
2019-02-21T07:05:18.648Z,3.40
2019-02-21T07:07:47.188Z,3.40
2019-02-21T07:10:15.672Z,3.40
2019-02-21T07:12:44.136Z,3.40
2019-02-21T07:15:15.049Z,3.40
2019-02-21T07:17:49.227Z,3.50
2019-02-21T07:20:13.115Z,3.60
2019-02-21T07:22:41.645Z,3.60
2019-02-21T07:25:11.920Z,3.60
2019-02-21T07:27:40.737Z,3.70
2019-02-21T07:30:19.603Z,3.80
2019-02-21T07:32:40.939Z,3.90
2019-02-21T07:35:09.464Z,3.90
2019-02-21T07:37:37.962Z,3.90
2019-02-21T07:40:08.031Z,4.00
2019-02-21T07:42:36.516Z,4.10
2019-02-21T07:45:05.803Z,4.20
2019-02-21T07:47:34.477Z,4.20
2019-02-21T07:50:03.207Z,4.30
2019-02-21T07:52:31.748Z,4.40
2019-02-21T07:55:02.181Z,4.40
2019-02-21T07:57:30.756Z,4.40
2019-02-21T07:59:59.328Z,4.50
2019-02-21T08:02:27.934Z,4.60
2019-02-21T08:04:56.496Z,4.60
2019-02-21T08:07:26.397Z,4.70
2019-02-21T08:09:55.120Z,4.80
2019-02-21T08:12:23.648Z,4.90
2019-02-21T08:14:52.131Z,4.90
2019-02-21T08:17:20.912Z,5.10
2019-02-21T08:19:49.482Z,5.20
2019-02-21T08:22:18.389Z,5.30
2019-02-21T08:24:46.920Z,5.40
2019-02-21T08:27:15.404Z,5.70
2019-02-21T08:29:44.040Z,5.90
2019-02-21T08:32:14.173Z,6.10
2019-02-21T08:34:44.355Z,6.20
2019-02-21T08:37:12.904Z,6.30
2019-02-21T08:39:41.364Z,6.40
2019-02-21T08:42:09.852Z,6.40
2019-02-21T08:44:38.386Z,6.50
2019-02-21T08:47:06.946Z,6.60
2019-02-21T08:49:35.480Z,6.60
2019-02-21T08:52:04.031Z,6.70
2019-02-21T08:54:32.494Z,6.70
2019-02-21T08:57:01.325Z,6.90
2019-02-21T08:59:29.855Z,6.90
2019-02-21T09:01:58.416Z,7.10
2019-02-21T09:04:27.950Z,7.20
2019-02-21T09:06:56.752Z,7.30
2019-02-21T09:09:25.324Z,7.40
2019-02-21T09:11:54.009Z,7.50
2019-02-21T09:14:22.638Z,7.60
2019-02-21T09:16:51.160Z,7.60
2019-02-21T09:19:19.732Z,7.80
2019-02-21T09:21:48.252Z,7.80
2019-02-21T09:24:35.160Z,8.00
2019-02-21T09:26:46.997Z,8.00
2019-02-21T09:29:15.488Z,8.00
2019-02-21T09:31:44.024Z,8.00
2019-02-21T09:34:20.835Z,8.10
2019-02-21T09:36:42.776Z,8.00
2019-02-21T09:39:11.550Z,8.10
2019-02-21T09:41:40.248Z,8.30
2019-02-21T09:44:08.790Z,8.40
2019-02-21T09:46:37.353Z,8.50
2019-02-21T09:49:05.888Z,8.70
2019-02-21T09:51:36.633Z,8.80
2019-02-21T09:54:05.028Z,8.90
2019-02-21T09:56:33.663Z,8.90
2019-02-21T09:59:02.199Z,9.10
2019-02-21T10:01:30.684Z,9.30
2019-02-21T10:03:59.136Z,9.60
2019-02-21T10:06:27.625Z,9.90
2019-02-21T10:08:56.099Z,10.20
2019-02-21T10:11:24.983Z,10.50
2019-02-21T10:13:53.549Z,10.90
2019-02-21T10:16:22.455Z,11.20
2019-02-21T10:18:51.016Z,11.60
2019-02-21T10:21:19.477Z,11.90
2019-02-21T10:23:48.432Z,12.10
2019-02-21T10:26:17.063Z,12.40
2019-02-21T10:28:45.604Z,12.90
2019-02-21T10:31:14.364Z,13.70
2019-02-21T10:33:46.856Z,14.50
2019-02-21T10:36:13.220Z,14.50
2019-02-21T10:38:42.069Z,14.30
2019-02-21T10:41:10.683Z,14.60
2019-02-21T10:43:39.240Z,14.60
2019-02-21T10:46:07.701Z,14.60
2019-02-21T10:48:36.600Z,14.30
2019-02-21T10:51:05.097Z,13.80
2019-02-21T10:53:33.636Z,13.60
2019-02-21T10:56:02.200Z,13.30
2019-02-21T10:58:30.745Z,13.10
2019-02-21T11:00:59.383Z,12.80
2019-02-21T11:03:28.209Z,12.50
2019-02-21T11:05:56.776Z,12.30
2019-02-21T11:08:25.245Z,12.20
2019-02-21T11:10:53.816Z,12.00
2019-02-21T11:13:22.645Z,11.90
2019-02-21T11:15:51.443Z,11.70
2019-02-21T11:18:20.008Z,11.60
2019-02-21T11:20:48.544Z,11.50
2019-02-21T11:23:17.036Z,11.40
2019-02-21T11:25:45.572Z,11.40
2019-02-21T11:28:14.147Z,11.40
2019-02-21T11:30:42.748Z,11.40
2019-02-21T11:33:11.385Z,11.50
2019-02-21T11:35:39.953Z,11.50
2019-02-21T11:38:08.416Z,11.50
2019-02-21T11:40:36.904Z,11.50
2019-02-21T11:43:05.377Z,11.50
2019-02-21T11:45:34.008Z,11.40
2019-02-21T11:48:02.553Z,11.40
2019-02-21T11:50:31.427Z,11.40
2019-02-21T11:52:59.964Z,11.40
2019-02-21T11:55:28.521Z,11.40
2019-02-21T11:57:57.060Z,11.50
2019-02-21T12:00:30.220Z,11.40
2019-02-21T12:02:58.760Z,11.40
2019-02-21T12:05:31.447Z,11.40
2019-02-21T12:07:57.515Z,11.30
2019-02-21T12:10:25.984Z,11.30
2019-02-21T12:12:54.472Z,11.20
2019-02-21T12:15:23.385Z,11.10
2019-02-21T12:17:51.944Z,11.10
2019-02-21T12:20:21.270Z,11.20
2019-02-21T12:22:49.971Z,11.20
2019-02-21T12:25:22.535Z,11.20
2019-02-21T12:27:51.077Z,11.10
2019-02-21T12:30:20.500Z,11.20
2019-02-21T12:32:48.972Z,11.20
2019-02-21T12:35:28.747Z,11.30
2019-02-21T12:37:47.857Z,11.40
2019-02-21T12:40:20.780Z,11.60
2019-02-21T12:42:49.249Z,11.70
2019-02-21T12:45:19.563Z,11.90
2019-02-21T12:47:52.979Z,12.00
2019-02-21T12:50:18.380Z,12.20
2019-02-21T12:52:46.935Z,12.30
2019-02-21T12:55:27.109Z,12.30
2019-02-21T12:57:46.607Z,12.10
2019-02-21T13:00:19.482Z,12.20
2019-02-21T13:02:48.388Z,12.20
2019-02-21T13:05:17.000Z,12.60
2019-02-21T13:07:45.543Z,13.00
2019-02-21T13:10:18.781Z,13.30
2019-02-21T13:12:47.641Z,13.30
2019-02-21T13:15:16.475Z,13.10
2019-02-21T13:17:45.018Z,12.80
2019-02-21T13:20:14.728Z,12.70
2019-02-21T13:22:43.264Z,12.70
2019-02-21T13:25:13.470Z,12.70
2019-02-21T13:27:41.961Z,12.90
2019-02-21T13:30:13.407Z,13.00
2019-02-21T13:32:42.037Z,12.90
2019-02-21T13:35:11.315Z,12.80
2019-02-21T13:37:39.848Z,12.90
2019-02-21T13:40:14.438Z,12.70
2019-02-21T13:42:43.005Z,12.50
2019-02-21T13:45:17.378Z,12.40
2019-02-21T13:47:46.172Z,12.20
2019-02-21T13:50:18.913Z,12.20
2019-02-21T13:52:47.454Z,12.20
2019-02-21T13:55:16.080Z,12.00
2019-02-21T13:57:44.689Z,12.00
2019-02-21T14:00:20.765Z,12.00
2019-02-21T14:02:49.440Z,12.10
2019-02-21T14:05:18.080Z,12.20
2019-02-21T14:07:46.689Z,12.20
2019-02-21T14:10:15.675Z,12.30
2019-02-21T14:12:44.240Z,12.40
2019-02-21T14:15:26.832Z,12.40
2019-02-21T14:17:55.328Z,12.50
2019-02-21T14:20:23.864Z,12.60
2019-02-21T14:22:52.439Z,12.90
2019-02-21T14:25:20.980Z,13.40
2019-02-21T14:27:49.925Z,13.60
2019-02-21T14:30:20.690Z,13.50
2019-02-21T14:32:49.223Z,13.30
2019-02-21T14:35:18.108Z,13.20
2019-02-21T14:37:46.653Z,12.90
2019-02-21T14:40:16.367Z,12.90
2019-02-21T14:42:45.080Z,12.80
2019-02-21T14:45:20.781Z,12.80
2019-02-21T14:47:49.312Z,12.60
2019-02-21T14:50:17.924Z,12.60
2019-02-21T14:52:46.416Z,12.50
2019-02-21T14:55:16.291Z,12.40
2019-02-21T14:57:44.921Z,12.40
2019-02-21T15:00:16.607Z,12.30
2019-02-21T15:02:45.176Z,12.30
2019-02-21T15:05:14.117Z,12.30
2019-02-21T15:07:43.119Z,12.30
2019-02-21T15:10:12.196Z,12.30
2019-02-21T15:12:40.690Z,12.40
2019-02-21T15:15:14.906Z,12.40
2019-02-21T15:17:43.470Z,12.60
2019-02-21T15:20:14.149Z,12.60
2019-02-21T15:22:42.632Z,12.80
2019-02-21T15:25:11.251Z,12.90
2019-02-21T15:27:39.788Z,12.90
2019-02-21T15:30:24.817Z,12.90
2019-02-21T15:32:53.564Z,13.00
2019-02-21T15:35:22.416Z,13.00
2019-02-21T15:37:50.910Z,13.00
2019-02-21T15:40:19.522Z,12.90
2019-02-21T15:42:48.080Z,12.80
2019-02-21T15:45:27.920Z,12.60
2019-02-21T15:47:56.911Z,12.50
2019-02-21T15:50:25.524Z,12.50
2019-02-21T15:52:56.035Z,12.50
2019-02-21T15:55:24.569Z,12.50
2019-02-21T15:58:03.319Z,12.50
2019-02-21T16:00:24.565Z,12.40
2019-02-21T16:02:53.059Z,12.40
2019-02-21T16:05:21.667Z,12.30
2019-02-21T16:07:50.131Z,12.20
2019-02-21T16:10:23.847Z,12.10
2019-02-21T16:12:52.961Z,12.00
2019-02-21T16:15:21.855Z,11.90
2019-02-21T16:17:50.512Z,11.80
2019-02-21T16:20:20.372Z,11.80
2019-02-21T16:22:48.976Z,11.70
2019-02-21T16:25:25.440Z,11.70
2019-02-21T16:27:55.451Z,11.70
2019-02-21T16:30:24.128Z,11.60
2019-02-21T16:32:52.663Z,11.60
2019-02-21T16:35:21.630Z,11.60
2019-02-21T16:37:50.172Z,11.60
2019-02-21T16:40:20.292Z,11.50
2019-02-21T16:42:48.933Z,11.50
2019-02-21T16:45:21.684Z,11.50
2019-02-21T16:47:50.229Z,11.50
2019-02-21T16:50:29.215Z,11.50
2019-02-21T16:52:49.120Z,11.40
2019-02-21T16:55:20.288Z,11.40
2019-02-21T16:57:48.844Z,11.40
2019-02-21T17:00:19.824Z,11.30
2019-02-21T17:02:48.320Z,11.30
2019-02-21T17:05:17.308Z,11.30
2019-02-21T17:07:45.879Z,11.20
2019-02-21T17:10:16.141Z,11.20
2019-02-21T17:12:44.953Z,11.20
2019-02-21T17:15:15.627Z,11.10
2019-02-21T17:17:44.531Z,11.10
2019-02-21T17:20:23.744Z,11.00
2019-02-21T17:22:52.675Z,11.00
2019-02-21T17:25:21.212Z,11.00
2019-02-21T17:27:50.544Z,11.00
2019-02-21T17:30:19.650Z,11.00
2019-02-21T17:32:48.284Z,11.00
2019-02-21T17:35:16.827Z,10.90
2019-02-21T17:37:45.388Z,10.90
2019-02-21T17:40:24.688Z,10.90
2019-02-21T17:42:53.180Z,10.90
2019-02-21T17:45:21.989Z,10.90
2019-02-21T17:47:50.620Z,10.80
2019-02-21T17:50:20.022Z,10.80
2019-02-21T17:52:48.631Z,10.80
2019-02-21T17:55:17.934Z,10.80
2019-02-21T17:57:46.712Z,10.80
2019-02-21T18:00:30.241Z,10.80
2019-02-21T18:02:58.871Z,10.70
2019-02-21T18:05:27.414Z,10.70
2019-02-21T18:07:55.953Z,10.70
2019-02-21T18:10:24.513Z,10.60
2019-02-21T18:12:53.069Z,10.60
2019-02-21T18:15:21.612Z,10.60
2019-02-21T18:17:50.077Z,10.60
2019-02-21T18:20:18.713Z,10.50
2019-02-21T18:22:47.400Z,10.50
2019-02-21T18:25:41.752Z,10.50
2019-02-21T18:28:10.288Z,10.50
2019-02-21T18:30:38.848Z,10.40
2019-02-21T18:33:07.700Z,10.40
2019-02-21T18:35:36.263Z,10.30
2019-02-21T18:38:04.936Z,10.30
2019-02-21T18:40:33.431Z,10.20
2019-02-21T18:43:01.973Z,10.30
2019-02-21T18:45:30.577Z,10.30
2019-02-21T18:47:59.061Z,10.30
2019-02-21T18:50:37.658Z,10.30
2019-02-21T18:52:57.741Z,10.30
2019-02-21T18:55:26.273Z,10.30
2019-02-21T18:57:54.796Z,10.30
2019-02-21T19:00:26.119Z,10.20
2019-02-21T19:02:54.756Z,10.20
2019-02-21T19:05:23.300Z,10.20
2019-02-21T19:08:03.980Z,10.20
2019-02-21T19:10:23.151Z,10.20
2019-02-21T19:12:52.085Z,10.30
2019-02-21T19:15:21.841Z,10.30
2019-02-21T19:17:50.392Z,10.30
2019-02-21T19:20:20.598Z,10.30
2019-02-21T19:22:50.011Z,10.30
2019-02-21T19:25:18.787Z,10.30
2019-02-21T19:27:47.884Z,10.30
2019-02-21T19:30:38.221Z,10.30
2019-02-21T19:33:07.379Z,10.30
2019-02-21T19:35:36.018Z,10.30
2019-02-21T19:38:10.523Z,10.30
2019-02-21T19:40:34.925Z,10.40
2019-02-21T19:43:03.467Z,10.40
2019-02-21T19:45:32.028Z,10.30
2019-02-21T19:48:00.560Z,10.20
2019-02-21T19:50:29.395Z,10.20
2019-02-21T19:52:58.008Z,10.20
2019-02-21T19:55:26.611Z,10.10
2019-02-21T19:57:55.173Z,10.10
2019-02-21T20:00:26.740Z,10.00
2019-02-21T20:02:55.829Z,10.00
2019-02-21T20:05:24.434Z,9.90
2019-02-21T20:07:53.155Z,9.90
2019-02-21T20:10:21.857Z,9.80
2019-02-21T20:12:50.520Z,9.70
2019-02-21T20:15:18.985Z,9.70
2019-02-21T20:17:47.608Z,9.70
2019-02-21T20:20:21.577Z,9.70
2019-02-21T20:22:50.065Z,9.70
2019-02-21T20:25:18.669Z,9.80
2019-02-21T20:27:47.271Z,9.80
2019-02-21T20:30:20.373Z,9.80
2019-02-21T20:32:48.908Z,9.80
2019-02-21T20:35:17.841Z,9.80
2019-02-21T20:37:46.380Z,9.80
2019-02-21T20:40:15.242Z,9.80
2019-02-21T20:42:43.919Z,9.80
2019-02-21T20:45:13.631Z,9.80
2019-02-21T20:47:42.228Z,9.90
2019-02-21T20:50:15.285Z,9.90
2019-02-21T20:52:43.888Z,9.90
2019-02-21T20:55:12.789Z,9.90
2019-02-21T20:57:41.501Z,9.90
2019-02-21T21:00:15.232Z,9.90
2019-02-21T21:02:43.908Z,9.90
2019-02-21T21:05:12.664Z,9.90
2019-02-21T21:07:41.616Z,10.00
2019-02-21T21:10:13.096Z,10.00
2019-02-21T21:12:42.061Z,10.00
2019-02-21T21:15:12.393Z,10.00
2019-02-21T21:17:40.991Z,10.00
2019-02-21T21:20:16.949Z,10.00
2019-02-21T21:22:44.184Z,10.00
2019-02-21T21:25:15.116Z,10.00
2019-02-21T21:27:43.726Z,10.00
2019-02-21T21:30:14.232Z,10.00
2019-02-21T21:32:42.724Z,10.00
2019-02-21T21:35:11.331Z,10.00
2019-02-21T21:37:39.819Z,10.00
2019-02-21T21:40:15.672Z,10.00
2019-02-21T21:42:44.385Z,10.00
2019-02-21T21:45:15.532Z,10.00
2019-02-21T21:47:44.159Z,9.90
2019-02-21T21:50:15.361Z,9.90
2019-02-21T21:52:43.919Z,9.90
2019-02-21T21:55:12.449Z,9.90
2019-02-21T21:57:41.124Z,9.90
2019-02-21T22:00:22.012Z,9.90
2019-02-21T22:02:51.016Z,9.80
2019-02-21T22:05:20.134Z,9.80
2019-02-21T22:07:49.482Z,9.90
2019-02-21T22:10:18.738Z,9.80
2019-02-21T22:12:47.380Z,9.80
2019-02-21T22:15:18.203Z,9.80
2019-02-21T22:17:47.017Z,9.90
2019-02-21T22:20:15.932Z,9.80
2019-02-21T22:22:44.799Z,9.80
2019-02-21T22:25:14.563Z,9.80
2019-02-21T22:27:43.180Z,9.80
2019-02-21T22:30:21.512Z,9.80
2019-02-21T22:32:50.116Z,9.80
2019-02-21T22:35:18.739Z,9.80
2019-02-21T22:37:47.345Z,9.80
2019-02-21T22:40:17.452Z,9.80
2019-02-21T22:42:46.059Z,9.80
2019-02-21T22:45:14.620Z,9.70
2019-02-21T22:47:43.460Z,9.70
2019-02-21T22:50:16.888Z,9.70
2019-02-21T22:52:45.935Z,9.60
2019-02-21T22:55:14.629Z,9.60
2019-02-21T22:57:43.632Z,9.60
2019-02-21T23:00:36.650Z,9.60
2019-02-21T23:03:08.176Z,9.50
2019-02-21T23:06:07.332Z,9.50
2019-02-21T23:08:45.138Z,9.50
2019-02-21T23:11:14.327Z,9.40
2019-02-21T23:13:43.101Z,9.40
2019-02-21T23:16:11.799Z,9.30
2019-02-21T23:18:40.788Z,9.30
2019-02-21T23:21:09.344Z,9.30
2019-02-21T23:23:38.357Z,9.30
2019-02-21T23:26:07.148Z,9.30
2019-02-21T23:28:36.040Z,9.30
2019-02-21T23:31:04.743Z,9.30
2019-02-21T23:33:34.868Z,9.30
2019-02-21T23:36:03.504Z,9.20
2019-02-21T23:38:32.072Z,9.20
2019-02-21T23:41:00.536Z,9.20
2019-02-21T23:43:29.163Z,9.30
2019-02-21T23:45:57.904Z,9.20
2019-02-21T23:48:26.459Z,9.30
2019-02-21T23:50:55.083Z,9.30
2019-02-21T23:53:23.622Z,9.30
2019-02-21T23:55:52.190Z,9.30
2019-02-21T23:58:21.092Z,9.30
